createdAt,value
2022-11-26T00:02:18.563Z,7.72
2022-11-26T00:04:46.857Z,7.57
2022-11-26T00:07:18.751Z,10.80
2022-11-26T00:09:46.877Z,9.48
2022-11-26T00:12:18.800Z,12.60
2022-11-26T00:14:48.150Z,14.57
2022-11-26T00:17:17.788Z,12.48
2022-11-26T00:19:47.023Z,9.00
2022-11-26T00:22:24.106Z,9.38
2022-11-26T00:24:52.812Z,8.52
2022-11-26T00:27:23.563Z,9.57
2022-11-26T00:29:51.731Z,7.43
2022-11-26T00:32:22.285Z,7.50
2022-11-26T00:34:50.356Z,6.40
2022-11-26T00:37:22.129Z,7.70
2022-11-26T00:39:51.479Z,6.82
2022-11-26T00:42:20.654Z,7.68
2022-11-26T00:44:50.321Z,7.70
2022-11-26T00:47:18.529Z,5.70
2022-11-26T00:49:46.597Z,5.47
2022-11-26T00:52:33.959Z,7.70
2022-11-26T00:55:07.963Z,6.75
2022-11-26T00:57:36.823Z,5.03
2022-11-26T01:00:14.930Z,5.28
2022-11-26T01:02:43.050Z,6.63
2022-11-26T01:05:11.740Z,9.23
2022-11-26T01:07:41.115Z,7.70
2022-11-26T01:10:18.080Z,6.35
2022-11-26T01:12:46.647Z,7.03
2022-11-26T01:15:17.212Z,6.03
2022-11-26T01:17:45.271Z,6.97
2022-11-26T01:20:25.462Z,5.30
2022-11-26T01:22:54.957Z,5.43
2022-11-26T01:25:23.992Z,5.85
2022-11-26T01:27:52.208Z,6.93
2022-11-26T01:30:24.393Z,4.88
2022-11-26T01:32:52.796Z,6.30
2022-11-26T01:35:22.340Z,5.07
2022-11-26T01:40:33.581Z,4.90
2022-11-26T01:43:06.316Z,5.90
2022-11-26T01:45:35.757Z,6.10
2022-11-26T01:48:11.571Z,7.88
2022-11-26T01:50:53.948Z,5.82
2022-11-26T01:53:44.578Z,6.18
2022-11-26T01:56:21.077Z,7.10
2022-11-26T01:58:52.732Z,6.53
2022-11-26T02:01:23.211Z,7.45
2022-11-26T02:03:58.206Z,7.68
2022-11-26T02:06:32.358Z,5.35
2022-11-26T02:09:03.490Z,8.70
2022-11-26T02:11:32.806Z,5.93
2022-11-26T02:14:04.046Z,5.20
2022-11-26T02:16:57.199Z,6.07
2022-11-26T02:19:58.928Z,6.40
2022-11-26T02:23:00.017Z,5.88
2022-11-26T02:25:49.338Z,4.43
2022-11-26T02:28:34.810Z,5.47
2022-11-26T02:31:10.233Z,5.35
2022-11-26T02:33:46.917Z,6.70
2022-11-26T02:36:20.564Z,5.05
2022-11-26T02:38:48.730Z,5.22
2022-11-26T02:41:16.839Z,5.68
2022-11-26T02:43:45.423Z,5.80
2022-11-26T02:46:19.343Z,6.17
2022-11-26T02:48:50.756Z,6.68
2022-11-26T02:51:23.872Z,9.45
2022-11-26T02:53:54.035Z,4.65
2022-11-26T02:56:25.552Z,5.97
2022-11-26T02:58:56.030Z,4.65
2022-11-26T03:01:31.823Z,3.67
2022-11-26T03:04:05.019Z,4.55
2022-11-26T03:06:35.389Z,4.78
2022-11-26T03:09:03.607Z,3.78
2022-11-26T03:11:31.908Z,4.25
2022-11-26T03:14:00.067Z,5.53
2022-11-26T03:16:30.162Z,5.32
2022-11-26T03:18:58.517Z,5.35
2022-11-26T03:21:26.708Z,5.22
2022-11-26T03:23:55.519Z,3.40
2022-11-26T03:26:23.656Z,3.03
2022-11-26T03:28:52.176Z,7.30
2022-11-26T03:31:20.534Z,4.72
2022-11-26T03:33:50.118Z,5.55
2022-11-26T03:38:46.027Z,6.10
2022-11-26T03:41:14.071Z,4.70
2022-11-26T03:43:42.189Z,4.65
2022-11-26T03:46:10.320Z,4.63
2022-11-26T03:48:38.383Z,4.88
2022-11-26T03:51:08.095Z,4.63
2022-11-26T03:53:36.168Z,4.20
2022-11-26T03:56:04.470Z,5.75
2022-11-26T03:58:32.535Z,4.03
2022-11-26T04:01:00.708Z,5.05
2022-11-26T04:03:28.845Z,4.07
2022-11-26T04:05:56.919Z,4.00
2022-11-26T04:08:26.412Z,3.95
2022-11-26T04:10:54.572Z,4.55
2022-11-26T04:13:22.699Z,4.10
2022-11-26T04:15:50.807Z,5.00
2022-11-26T04:18:18.912Z,3.72
2022-11-26T04:20:51.563Z,3.50
2022-11-26T04:23:21.249Z,3.42
2022-11-26T04:25:50.844Z,5.63
2022-11-26T04:30:46.771Z,5.22
2022-11-26T04:33:14.972Z,4.35
2022-11-26T04:35:43.361Z,3.28
2022-11-26T04:38:11.693Z,3.25
2022-11-26T04:40:40.329Z,7.00
2022-11-26T04:43:09.743Z,5.00
2022-11-26T04:45:37.915Z,4.47
2022-11-26T04:48:06.808Z,7.13
2022-11-26T04:50:34.961Z,4.00
2022-11-26T04:53:03.210Z,6.63
2022-11-26T04:55:31.505Z,5.20
2022-11-26T04:57:59.584Z,8.00
2022-11-26T05:00:29.397Z,5.20
2022-11-26T05:02:57.706Z,3.90
2022-11-26T05:05:25.794Z,4.80
2022-11-26T05:07:54.303Z,3.55
2022-11-26T05:10:22.539Z,6.50
2022-11-26T05:12:50.625Z,7.38
2022-11-26T05:15:18.728Z,6.78
2022-11-26T05:17:48.338Z,6.47
2022-11-26T05:22:44.472Z,5.78
2022-11-26T05:25:12.724Z,9.50
2022-11-26T05:27:40.750Z,7.85
2022-11-26T05:30:10.083Z,8.02
2022-11-26T05:32:38.199Z,5.90
2022-11-26T05:35:08.390Z,6.18
2022-11-26T05:37:36.425Z,5.68
2022-11-26T05:40:05.914Z,3.85
2022-11-26T05:42:34.028Z,12.98
2022-11-26T05:45:02.425Z,4.65
2022-11-26T05:47:30.541Z,4.22
2022-11-26T05:49:58.773Z,7.93
2022-11-26T05:52:28.504Z,5.63
2022-11-26T05:54:56.663Z,5.88
2022-11-26T05:57:24.847Z,4.22
2022-11-26T05:59:52.876Z,4.38
2022-11-26T06:02:21.541Z,7.05
2022-11-26T06:04:49.666Z,3.83
2022-11-26T06:07:17.757Z,5.47
2022-11-26T06:09:47.215Z,6.55
2022-11-26T06:12:15.295Z,4.85
2022-11-26T06:14:43.755Z,6.00
2022-11-26T06:17:11.997Z,5.90
2022-11-26T06:19:40.587Z,6.00
2022-11-26T06:22:08.780Z,5.07
2022-11-26T06:24:37.297Z,6.10
2022-11-26T06:27:07.091Z,7.68
2022-11-26T06:32:03.432Z,5.47
2022-11-26T06:34:31.520Z,5.68
2022-11-26T06:36:59.572Z,6.50
2022-11-26T06:39:27.749Z,6.90
2022-11-26T06:41:55.820Z,6.70
2022-11-26T06:44:25.228Z,7.03
2022-11-26T06:46:53.288Z,7.53
2022-11-26T06:49:21.623Z,7.70
2022-11-26T06:51:49.704Z,8.70
2022-11-26T06:54:17.805Z,6.05
2022-11-26T06:56:45.995Z,6.22
2022-11-26T06:59:14.301Z,7.50
2022-11-26T07:01:43.835Z,6.53
2022-11-26T07:06:41.379Z,4.20
2022-11-26T07:09:11.361Z,7.53
2022-11-26T07:11:40.530Z,9.20
2022-11-26T07:14:08.997Z,7.28
2022-11-26T07:16:37.591Z,10.85
2022-11-26T07:19:07.468Z,7.30
2022-11-26T07:21:35.761Z,9.57
2022-11-26T07:24:04.080Z,6.20
2022-11-26T07:26:32.411Z,7.70
2022-11-26T07:29:00.774Z,8.45
2022-11-26T07:31:29.016Z,6.93
2022-11-26T07:33:57.707Z,7.15
2022-11-26T07:36:29.835Z,5.30
2022-11-26T07:38:59.101Z,12.07
2022-11-26T07:41:28.389Z,12.20
2022-11-26T07:43:56.949Z,13.65
2022-11-26T07:46:27.012Z,8.55
2022-11-26T07:48:56.283Z,9.82
2022-11-26T07:51:28.184Z,15.52
2022-11-26T07:53:57.154Z,25.00
2022-11-26T07:56:25.410Z,47.20
2022-11-26T07:58:53.968Z,59.60
2022-11-26T08:01:24.314Z,56.15
2022-11-26T08:03:53.059Z,48.20
2022-11-26T08:06:22.769Z,25.48
2022-11-26T08:08:53.239Z,18.50
2022-11-26T08:11:23.668Z,19.00
2022-11-26T08:13:55.195Z,17.63
2022-11-26T08:16:23.815Z,13.98
2022-11-26T08:18:54.795Z,15.27
2022-11-26T08:21:23.389Z,17.80
2022-11-26T08:23:53.336Z,13.83
2022-11-26T08:26:27.643Z,12.82
2022-11-26T08:29:01.563Z,12.57
2022-11-26T08:31:30.266Z,12.23
2022-11-26T08:33:58.989Z,12.77
2022-11-26T08:36:28.272Z,12.23
2022-11-26T08:38:58.199Z,13.25
2022-11-26T08:41:26.639Z,11.07
2022-11-26T08:44:10.153Z,6.45
2022-11-26T08:46:39.259Z,10.75
2022-11-26T08:49:10.524Z,11.57
2022-11-26T08:51:38.823Z,13.45
2022-11-26T08:54:08.480Z,14.35
2022-11-26T08:59:05.348Z,12.30
2022-11-26T09:01:34.804Z,11.30
2022-11-26T09:06:33.033Z,9.88
2022-11-26T09:09:15.041Z,9.68
2022-11-26T09:11:47.488Z,12.30
2022-11-26T09:14:16.968Z,7.68
2022-11-26T09:19:14.755Z,7.35
2022-11-26T09:21:43.530Z,11.02
2022-11-26T09:24:11.681Z,8.05
2022-11-26T09:26:40.075Z,9.68
2022-11-26T09:29:11.496Z,10.20
2022-11-26T09:31:55.057Z,8.27
2022-11-26T09:34:27.959Z,8.70
2022-11-26T09:36:56.200Z,10.73
2022-11-26T09:39:24.228Z,10.35
2022-11-26T09:41:59.257Z,9.70
2022-11-26T09:44:53.045Z,8.80
2022-11-26T09:47:23.971Z,12.05
2022-11-26T09:50:02.024Z,6.38
2022-11-26T09:52:34.691Z,6.32
2022-11-26T09:55:13.650Z,9.10
2022-11-26T09:57:44.299Z,9.10
2022-11-26T10:00:24.908Z,5.70
2022-11-26T10:02:54.705Z,8.10
2022-11-26T10:05:38.303Z,7.25
2022-11-26T10:08:19.001Z,9.25
2022-11-26T10:10:53.725Z,6.00
2022-11-26T10:13:29.443Z,8.07
2022-11-26T10:16:09.141Z,7.38
2022-11-26T10:18:46.609Z,8.82
2022-11-26T10:21:32.529Z,12.45
2022-11-26T10:24:20.707Z,9.38
2022-11-26T10:26:49.695Z,9.00
2022-11-26T10:29:24.372Z,10.60
2022-11-26T10:31:58.759Z,10.80
2022-11-26T10:34:37.406Z,13.32
2022-11-26T10:37:07.264Z,9.82
2022-11-26T10:39:35.528Z,11.77
2022-11-26T10:42:10.559Z,13.10
2022-11-26T10:44:41.430Z,9.52
2022-11-26T10:47:27.177Z,18.50
2022-11-26T10:49:56.630Z,20.42
2022-11-26T10:52:28.380Z,19.17
2022-11-26T10:55:27.986Z,11.57
2022-11-26T10:57:59.204Z,15.60
2022-11-26T11:00:34.384Z,11.23
2022-11-26T11:03:05.849Z,18.98
2022-11-26T11:05:35.212Z,12.52
2022-11-26T11:08:03.377Z,12.43
2022-11-26T11:10:31.558Z,12.95
2022-11-26T11:13:10.297Z,11.13
2022-11-26T11:15:40.407Z,9.68
2022-11-26T11:18:20.461Z,11.55
2022-11-26T11:20:57.073Z,11.70
2022-11-26T11:23:45.740Z,10.43
2022-11-26T11:26:19.322Z,8.38
2022-11-26T11:28:50.050Z,10.90
2022-11-26T11:31:21.482Z,9.48
2022-11-26T11:33:52.463Z,6.93
2022-11-26T11:36:27.338Z,15.02
2022-11-26T11:38:57.352Z,8.82
2022-11-26T11:41:30.926Z,7.70
2022-11-26T11:44:06.905Z,11.98
2022-11-26T11:47:04.677Z,20.58
2022-11-26T11:49:46.472Z,11.05
2022-11-26T11:52:23.491Z,11.00
2022-11-26T11:55:00.162Z,12.27
2022-11-26T11:57:46.288Z,9.55
2022-11-26T12:00:18.097Z,12.20
2022-11-26T12:03:10.745Z,10.18
2022-11-26T12:05:49.879Z,8.35
2022-11-26T12:08:30.050Z,11.95
2022-11-26T12:11:09.969Z,10.88
2022-11-26T12:13:46.457Z,13.15
2022-11-26T12:16:17.988Z,8.07
2022-11-26T12:18:51.202Z,8.45
2022-11-26T12:21:28.288Z,12.02
2022-11-26T12:24:01.120Z,20.52
2022-11-26T12:26:33.905Z,20.48
2022-11-26T12:29:05.734Z,17.42
2022-11-26T12:31:40.059Z,12.50
2022-11-26T12:34:14.252Z,32.28
2022-11-26T12:36:53.041Z,30.98
2022-11-26T12:39:33.742Z,14.15
2022-11-26T12:42:06.662Z,10.55
2022-11-26T12:44:39.210Z,13.63
2022-11-26T12:47:14.100Z,40.45
2022-11-26T12:49:53.668Z,13.20
2022-11-26T12:55:04.627Z,14.70
2022-11-26T12:57:39.304Z,11.73
2022-11-26T13:00:12.876Z,14.60
2022-11-26T13:02:43.559Z,14.75
2022-11-26T13:05:18.147Z,11.73
2022-11-26T13:08:00.881Z,11.05
2022-11-26T13:10:39.203Z,15.65
2022-11-26T13:13:18.158Z,13.82
2022-11-26T13:15:51.454Z,12.05
2022-11-26T13:18:28.911Z,18.33
2022-11-26T13:21:08.558Z,18.85
2022-11-26T13:24:00.669Z,15.88
2022-11-26T13:26:44.700Z,15.43
2022-11-26T13:29:50.732Z,16.58
2022-11-26T13:32:43.365Z,13.88
2022-11-26T13:35:23.207Z,12.93
2022-11-26T13:38:04.837Z,13.43
2022-11-26T13:40:58.963Z,14.30
2022-11-26T13:43:57.857Z,16.65
2022-11-26T13:46:28.762Z,14.70
2022-11-26T13:49:01.127Z,13.82
2022-11-26T13:51:35.137Z,13.65
2022-11-26T13:54:09.700Z,15.65
2022-11-26T13:56:41.211Z,21.90
2022-11-26T13:59:16.972Z,15.30
2022-11-26T14:01:45.589Z,11.73
2022-11-26T14:04:15.824Z,14.85
2022-11-26T14:07:19.638Z,11.63
2022-11-26T14:09:53.650Z,10.23
2022-11-26T14:12:24.711Z,16.02
2022-11-26T14:14:52.920Z,9.05
2022-11-26T14:17:27.202Z,11.32
2022-11-26T14:20:12.066Z,10.07
2022-11-26T14:22:40.699Z,12.10
2022-11-26T14:25:12.005Z,11.57
2022-11-26T14:27:44.720Z,12.57
2022-11-26T14:30:29.338Z,11.00
2022-11-26T14:33:13.829Z,13.27
2022-11-26T14:35:53.076Z,12.57
2022-11-26T14:38:26.128Z,13.20
2022-11-26T14:40:59.561Z,18.95
2022-11-26T14:43:29.687Z,18.85
2022-11-26T14:46:05.066Z,20.50
2022-11-26T14:48:36.913Z,18.30
2022-11-26T14:51:09.793Z,26.80
2022-11-26T14:53:44.628Z,18.00
2022-11-26T14:56:12.755Z,20.98
2022-11-26T14:58:45.932Z,18.88
2022-11-26T15:01:20.965Z,16.83
2022-11-26T15:03:56.941Z,17.92
2022-11-26T15:06:27.700Z,22.50
2022-11-26T15:09:15.000Z,28.30
2022-11-26T15:11:46.134Z,26.80
2022-11-26T15:14:22.086Z,29.67
2022-11-26T15:16:56.726Z,30.08
2022-11-26T15:19:25.441Z,43.92
2022-11-26T15:21:53.628Z,532.78
2022-11-26T15:24:21.934Z,414.05
2022-11-26T15:26:50.067Z,112.63
2022-11-26T15:29:34.361Z,52.13
2022-11-26T15:32:03.294Z,22.17
2022-11-26T15:34:33.195Z,20.73
2022-11-26T15:37:01.486Z,20.75
2022-11-26T15:39:31.858Z,20.50
2022-11-26T15:42:05.658Z,14.23
2022-11-26T15:44:42.427Z,16.67
2022-11-26T15:47:20.370Z,11.75
2022-11-26T15:49:52.023Z,16.45
2022-11-26T15:52:24.518Z,14.73
2022-11-26T15:55:16.256Z,15.70
2022-11-26T15:57:45.203Z,18.85
2022-11-26T16:00:23.952Z,20.83
2022-11-26T16:02:52.655Z,19.48
2022-11-26T16:05:28.650Z,13.93
2022-11-26T16:07:58.762Z,15.50
2022-11-26T16:10:31.181Z,16.02
2022-11-26T16:13:19.090Z,17.88
2022-11-26T16:15:52.930Z,14.30
2022-11-26T16:18:24.605Z,17.42
2022-11-26T16:21:03.334Z,15.45
2022-11-26T16:23:31.841Z,18.55
2022-11-26T16:26:24.598Z,21.88
2022-11-26T16:28:52.666Z,23.50
2022-11-26T16:31:22.968Z,21.88
2022-11-26T16:33:51.443Z,17.98
2022-11-26T16:36:24.833Z,16.13
2022-11-26T16:38:53.764Z,16.80
2022-11-26T16:41:23.433Z,13.18
2022-11-26T16:43:51.777Z,14.82
2022-11-26T16:46:23.672Z,14.15
2022-11-26T16:48:53.438Z,11.88
2022-11-26T16:53:50.539Z,14.82
2022-11-26T16:56:23.448Z,11.40
2022-11-26T16:58:52.121Z,12.18
2022-11-26T17:01:21.624Z,15.43
2022-11-26T17:06:22.853Z,20.27
2022-11-26T17:08:51.200Z,16.42
2022-11-26T17:11:19.540Z,13.15
2022-11-26T17:13:47.816Z,14.52
2022-11-26T17:16:18.348Z,15.95
2022-11-26T17:18:48.433Z,11.75
2022-11-26T17:21:17.455Z,8.38
2022-11-26T17:23:45.994Z,8.02
2022-11-26T17:26:22.117Z,13.27
2022-11-26T17:28:51.448Z,10.40
2022-11-26T17:31:19.705Z,8.52
2022-11-26T17:33:50.608Z,12.85
2022-11-26T17:36:21.969Z,12.02
2022-11-26T17:38:50.562Z,9.32
2022-11-26T17:41:19.283Z,6.78
2022-11-26T17:43:47.766Z,12.25
2022-11-26T17:46:18.125Z,17.10
2022-11-26T17:48:46.345Z,11.82
2022-11-26T17:51:16.303Z,13.40
2022-11-26T17:53:44.967Z,14.52
2022-11-26T17:56:18.333Z,12.50
2022-11-26T17:58:47.083Z,12.05
2022-11-26T18:01:15.900Z,14.40
2022-11-26T18:03:45.155Z,23.20
2022-11-26T18:06:18.372Z,16.35
2022-11-26T18:08:46.840Z,22.48
2022-11-26T18:11:16.831Z,18.55
2022-11-26T18:13:45.397Z,19.95
2022-11-26T18:16:14.179Z,20.60
2022-11-26T18:18:42.322Z,17.85
2022-11-26T18:21:10.731Z,19.15
2022-11-26T18:23:42.251Z,17.77
2022-11-26T18:26:17.561Z,23.23
2022-11-26T18:28:45.827Z,17.13
2022-11-26T18:31:15.564Z,19.35
2022-11-26T18:33:43.799Z,24.10
2022-11-26T18:36:12.598Z,26.30
2022-11-26T18:38:42.064Z,25.42
2022-11-26T18:43:39.824Z,28.52
2022-11-26T18:46:15.261Z,26.98
2022-11-26T18:48:45.192Z,25.52
2022-11-26T18:51:13.868Z,26.13
2022-11-26T18:53:44.130Z,21.93
2022-11-26T18:56:14.537Z,28.15
2022-11-26T18:58:43.165Z,37.08
2022-11-26T19:01:15.886Z,30.57
2022-11-26T19:03:44.827Z,36.75
2022-11-26T19:06:16.052Z,45.47
2022-11-26T19:08:46.556Z,43.30
2022-11-26T19:11:17.754Z,37.45
2022-11-26T19:13:46.026Z,35.85
2022-11-26T19:16:16.954Z,35.00
2022-11-26T19:18:46.169Z,35.78
2022-11-26T19:21:19.744Z,37.67
2022-11-26T19:23:50.029Z,40.83
2022-11-26T19:26:18.606Z,40.67
2022-11-26T19:28:47.605Z,32.83
2022-11-26T19:31:18.546Z,35.45
2022-11-26T19:33:48.287Z,35.03
2022-11-26T19:36:17.776Z,43.40
2022-11-26T19:38:47.839Z,36.65
2022-11-26T19:41:15.882Z,39.22
2022-11-26T19:43:44.167Z,30.33
2022-11-26T19:46:13.566Z,30.77
2022-11-26T19:48:43.988Z,30.42
2022-11-26T19:51:13.633Z,35.70
2022-11-26T19:56:17.681Z,30.50
2022-11-26T19:58:46.030Z,32.30
2022-11-26T20:01:16.351Z,31.92
2022-11-26T20:03:45.340Z,29.40
2022-11-26T20:06:16.348Z,29.35
2022-11-26T20:08:45.064Z,29.27
2022-11-26T20:11:15.149Z,23.98
2022-11-26T20:13:45.052Z,25.70
2022-11-26T20:16:16.048Z,23.63
2022-11-26T20:18:44.919Z,22.27
2022-11-26T20:21:15.576Z,22.13
2022-11-26T20:23:44.010Z,23.90
2022-11-26T20:26:17.802Z,23.58
2022-11-26T20:28:46.977Z,21.58
2022-11-26T20:31:20.489Z,17.98
2022-11-26T20:33:51.656Z,20.83
2022-11-26T20:36:20.798Z,20.73
2022-11-26T20:38:52.206Z,26.00
2022-11-26T20:41:22.101Z,31.65
2022-11-26T20:43:55.078Z,26.27
2022-11-26T20:46:25.313Z,24.95
2022-11-26T20:48:53.503Z,25.37
2022-11-26T20:51:22.660Z,32.25
2022-11-26T20:53:52.011Z,28.17
2022-11-26T20:56:23.023Z,28.95
2022-11-26T20:58:52.627Z,29.45
2022-11-26T21:03:49.806Z,31.70
2022-11-26T21:06:20.165Z,32.25
2022-11-26T21:08:49.987Z,35.15
2022-11-26T21:11:18.854Z,28.70
2022-11-26T21:13:48.360Z,32.65
2022-11-26T21:16:17.507Z,34.03
2022-11-26T21:18:45.758Z,34.92
2022-11-26T21:21:15.942Z,34.20
2022-11-26T21:23:45.646Z,33.65
2022-11-26T21:26:17.597Z,34.75
2022-11-26T21:28:45.706Z,33.72
2022-11-26T21:31:17.721Z,32.15
2022-11-26T21:33:46.571Z,29.52
2022-11-26T21:36:16.574Z,28.95
2022-11-26T21:38:48.230Z,31.17
2022-11-26T21:41:17.067Z,28.98
2022-11-26T21:43:45.779Z,34.58
2022-11-26T21:46:17.181Z,51.03
2022-11-26T21:48:45.464Z,52.50
2022-11-26T21:51:17.209Z,44.47
2022-11-26T21:53:46.411Z,59.63
2022-11-26T21:56:17.572Z,75.65
2022-11-26T21:58:45.958Z,75.75
2022-11-26T22:01:17.593Z,60.85
2022-11-26T22:03:47.995Z,46.72
2022-11-26T22:06:16.834Z,38.90
2022-11-26T22:08:47.377Z,34.42
2022-11-26T22:11:17.368Z,26.60
2022-11-26T22:13:45.986Z,26.38
2022-11-26T22:16:17.947Z,33.85
2022-11-26T22:18:47.176Z,29.30
2022-11-26T22:21:17.648Z,26.55
2022-11-26T22:23:46.552Z,28.17
2022-11-26T22:26:15.162Z,28.67
2022-11-26T22:28:43.398Z,33.27
2022-11-26T22:31:13.156Z,36.88
2022-11-26T22:33:42.708Z,50.00
2022-11-26T22:36:11.146Z,51.00
2022-11-26T22:38:40.531Z,35.63
2022-11-26T22:41:10.402Z,37.25
2022-11-26T22:43:38.648Z,42.08
2022-11-26T22:46:07.990Z,39.22
2022-11-26T22:48:36.661Z,47.97
2022-11-26T22:51:06.622Z,45.10
2022-11-26T22:53:34.658Z,51.28
2022-11-26T22:56:03.983Z,47.13
2022-11-26T22:58:33.834Z,46.58
2022-11-26T23:01:03.663Z,40.92
2022-11-26T23:03:34.382Z,43.22
2022-11-26T23:06:09.597Z,35.95
2022-11-26T23:08:38.789Z,43.97
2022-11-26T23:11:08.672Z,33.28
2022-11-26T23:13:37.171Z,32.90
2022-11-26T23:16:08.469Z,33.88
2022-11-26T23:18:37.273Z,33.03
2022-11-26T23:21:09.061Z,27.65
2022-11-26T23:23:38.642Z,29.92
2022-11-26T23:28:37.007Z,18.43
2022-11-26T23:31:08.257Z,24.58
2022-11-26T23:33:36.909Z,25.05
2022-11-26T23:36:05.796Z,22.03
2022-11-26T23:38:36.305Z,23.75
2022-11-26T23:41:06.540Z,20.98
2022-11-26T23:43:36.537Z,25.23
2022-11-26T23:46:06.897Z,22.38
2022-11-26T23:48:35.192Z,23.30
2022-11-26T23:51:07.636Z,19.88
2022-11-26T23:53:37.405Z,21.88
2022-11-26T23:56:07.465Z,20.63
2022-11-26T23:58:35.844Z,21.55
